sensor_id;sensor_type;location;lat;lon;timestamp;P1;durP1;ratioP1;P2;durP2;ratioP2
53267;SDS011;39156;51.176;6.738;2022-09-01T00:01:34;29.30;;;27.40;;
53267;SDS011;39156;51.176;6.738;2022-09-01T00:04:05;28.63;;;26.88;;
53267;SDS011;39156;51.176;6.738;2022-09-01T00:06:34;27.73;;;26.23;;
53267;SDS011;39156;51.176;6.738;2022-09-01T00:09:02;26.35;;;24.75;;
53267;SDS011;39156;51.176;6.738;2022-09-01T00:11:32;29.30;;;27.60;;
53267;SDS011;39156;51.176;6.738;2022-09-01T00:13:59;27.50;;;26.10;;
53267;SDS011;39156;51.176;6.738;2022-09-01T00:16:27;28.75;;;27.05;;
53267;SDS011;39156;51.176;6.738;2022-09-01T00:18:54;27.77;;;26.25;;
53267;SDS011;39156;51.176;6.738;2022-09-01T00:21:22;28.80;;;26.87;;
53267;SDS011;39156;51.176;6.738;2022-09-01T00:23:52;30.45;;;28.60;;
53267;SDS011;39156;51.176;6.738;2022-09-01T00:26:18;28.95;;;27.30;;
53267;SDS011;39156;51.176;6.738;2022-09-01T00:28:44;27.50;;;26.10;;
53267;SDS011;39156;51.176;6.738;2022-09-01T00:31:10;29.70;;;27.93;;
53267;SDS011;39156;51.176;6.738;2022-09-01T00:33:38;29.60;;;27.85;;
53267;SDS011;39156;51.176;6.738;2022-09-01T00:36:04;28.77;;;27.27;;
53267;SDS011;39156;51.176;6.738;2022-09-01T00:38:30;29.30;;;27.60;;
53267;SDS011;39156;51.176;6.738;2022-09-01T00:40:57;28.27;;;26.77;;
53267;SDS011;39156;51.176;6.738;2022-09-01T00:43:41;28.17;;;26.48;;
53267;SDS011;39156;51.176;6.738;2022-09-01T00:46:17;28.17;;;26.67;;
53267;SDS011;39156;51.176;6.738;2022-09-01T00:48:50;29.02;;;27.52;;
53267;SDS011;39156;51.176;6.738;2022-09-01T00:51:25;28.58;;;26.98;;
53267;SDS011;39156;51.176;6.738;2022-09-01T00:53:52;29.92;;;28.25;;
53267;SDS011;39156;51.176;6.738;2022-09-01T00:56:21;29.25;;;27.63;;
53267;SDS011;39156;51.176;6.738;2022-09-01T00:58:47;27.45;;;25.90;;
53267;SDS011;39156;51.176;6.738;2022-09-01T01:01:13;28.70;;;27.20;;
53267;SDS011;39156;51.176;6.738;2022-09-01T01:03:39;29.27;;;27.67;;
53267;SDS011;39156;51.176;6.738;2022-09-01T01:06:08;28.25;;;26.75;;
53267;SDS011;39156;51.176;6.738;2022-09-01T01:08:35;29.20;;;27.60;;
53267;SDS011;39156;51.176;6.738;2022-09-01T01:11:05;28.80;;;27.25;;
53267;SDS011;39156;51.176;6.738;2022-09-01T01:13:56;27.85;;;26.35;;
53267;SDS011;39156;51.176;6.738;2022-09-01T01:16:36;29.77;;;28.17;;
53267;SDS011;39156;51.176;6.738;2022-09-01T01:22:09;28.95;;;27.35;;
53267;SDS011;39156;51.176;6.738;2022-09-01T01:25:01;29.75;;;27.77;;
53267;SDS011;39156;51.176;6.738;2022-09-01T01:27:33;28.97;;;27.47;;
53267;SDS011;39156;51.176;6.738;2022-09-01T01:30:02;29.55;;;27.95;;
53267;SDS011;39156;51.176;6.738;2022-09-01T01:32:33;28.90;;;27.27;;
53267;SDS011;39156;51.176;6.738;2022-09-01T01:35:00;28.98;;;27.23;;
53267;SDS011;39156;51.176;6.738;2022-09-01T01:37:29;28.17;;;26.63;;
53267;SDS011;39156;51.176;6.738;2022-09-01T01:39:59;28.73;;;26.88;;
53267;SDS011;39156;51.176;6.738;2022-09-01T01:42:25;27.20;;;25.70;;
53267;SDS011;39156;51.176;6.738;2022-09-01T01:44:53;29.65;;;27.75;;
53267;SDS011;39156;51.176;6.738;2022-09-01T01:47:19;28.85;;;27.25;;
53267;SDS011;39156;51.176;6.738;2022-09-01T01:49:46;26.73;;;25.33;;
53267;SDS011;39156;51.176;6.738;2022-09-01T01:52:12;30.37;;;28.77;;
53267;SDS011;39156;51.176;6.738;2022-09-01T01:54:41;29.05;;;27.48;;
53267;SDS011;39156;51.176;6.738;2022-09-01T01:57:10;30.63;;;28.83;;
53267;SDS011;39156;51.176;6.738;2022-09-01T01:59:41;28.63;;;27.02;;
53267;SDS011;39156;51.176;6.738;2022-09-01T02:02:07;29.52;;;27.83;;
53267;SDS011;39156;51.176;6.738;2022-09-01T02:04:33;30.05;;;28.30;;
53267;SDS011;39156;51.176;6.738;2022-09-01T02:07:00;29.55;;;27.85;;
53267;SDS011;39156;51.176;6.738;2022-09-01T02:09:25;28.90;;;27.37;;
53267;SDS011;39156;51.176;6.738;2022-09-01T02:11:51;27.30;;;25.83;;
53267;SDS011;39156;51.176;6.738;2022-09-01T02:14:21;28.00;;;26.50;;
53267;SDS011;39156;51.176;6.738;2022-09-01T02:16:47;28.45;;;26.92;;
53267;SDS011;39156;51.176;6.738;2022-09-01T02:19:13;28.50;;;27.00;;
53267;SDS011;39156;51.176;6.738;2022-09-01T02:21:43;28.85;;;27.25;;
53267;SDS011;39156;51.176;6.738;2022-09-01T02:24:20;29.43;;;27.73;;
53267;SDS011;39156;51.176;6.738;2022-09-01T02:26:48;28.48;;;26.77;;
53267;SDS011;39156;51.176;6.738;2022-09-01T02:29:18;28.50;;;27.00;;
53267;SDS011;39156;51.176;6.738;2022-09-01T02:31:48;28.45;;;26.85;;
53267;SDS011;39156;51.176;6.738;2022-09-01T02:34:17;28.25;;;26.65;;
53267;SDS011;39156;51.176;6.738;2022-09-01T02:39:15;28.25;;;26.65;;
53267;SDS011;39156;51.176;6.738;2022-09-01T02:41:44;29.70;;;28.10;;
53267;SDS011;39156;51.176;6.738;2022-09-01T02:44:10;27.98;;;26.48;;
53267;SDS011;39156;51.176;6.738;2022-09-01T02:46:37;28.40;;;26.80;;
53267;SDS011;39156;51.176;6.738;2022-09-01T02:49:06;28.70;;;27.10;;
53267;SDS011;39156;51.176;6.738;2022-09-01T02:51:40;29.13;;;27.52;;
53267;SDS011;39156;51.176;6.738;2022-09-01T02:54:08;30.80;;;29.00;;
53267;SDS011;39156;51.176;6.738;2022-09-01T02:56:39;28.67;;;26.88;;
53267;SDS011;39156;51.176;6.738;2022-09-01T02:59:05;28.70;;;27.20;;
53267;SDS011;39156;51.176;6.738;2022-09-01T03:01:36;29.30;;;27.65;;
53267;SDS011;39156;51.176;6.738;2022-09-01T03:06:32;27.67;;;26.17;;
53267;SDS011;39156;51.176;6.738;2022-09-01T03:08:58;28.95;;;27.35;;
53267;SDS011;39156;51.176;6.738;2022-09-01T03:11:25;29.33;;;27.73;;
53267;SDS011;39156;51.176;6.738;2022-09-01T03:13:53;29.20;;;27.15;;
53267;SDS011;39156;51.176;6.738;2022-09-01T03:16:19;30.07;;;28.30;;
53267;SDS011;39156;51.176;6.738;2022-09-01T03:21:13;29.60;;;27.95;;
53267;SDS011;39156;51.176;6.738;2022-09-01T03:23:42;29.25;;;27.73;;
53267;SDS011;39156;51.176;6.738;2022-09-01T03:26:09;30.05;;;28.38;;
53267;SDS011;39156;51.176;6.738;2022-09-01T03:28:36;30.35;;;28.73;;
53267;SDS011;39156;51.176;6.738;2022-09-01T03:31:02;30.07;;;28.30;;
53267;SDS011;39156;51.176;6.738;2022-09-01T03:33:28;31.45;;;29.63;;
53267;SDS011;39156;51.176;6.738;2022-09-01T03:35:54;29.38;;;27.27;;
53267;SDS011;39156;51.176;6.738;2022-09-01T03:38:21;29.40;;;27.80;;
53267;SDS011;39156;51.176;6.738;2022-09-01T03:40:52;29.95;;;28.10;;
53267;SDS011;39156;51.176;6.738;2022-09-01T03:43:26;28.48;;;26.73;;
53267;SDS011;39156;51.176;6.738;2022-09-01T03:45:54;29.15;;;27.55;;
53267;SDS011;39156;51.176;6.738;2022-09-01T03:48:24;30.02;;;28.38;;
53267;SDS011;39156;51.176;6.738;2022-09-01T03:50:53;29.08;;;27.48;;
53267;SDS011;39156;51.176;6.738;2022-09-01T03:53:22;29.38;;;27.67;;
53267;SDS011;39156;51.176;6.738;2022-09-01T03:55:51;29.65;;;27.92;;
53267;SDS011;39156;51.176;6.738;2022-09-01T03:58:19;30.73;;;28.85;;
53267;SDS011;39156;51.176;6.738;2022-09-01T04:00:46;28.90;;;27.33;;
53267;SDS011;39156;51.176;6.738;2022-09-01T04:03:22;29.73;;;28.00;;
53267;SDS011;39156;51.176;6.738;2022-09-01T04:05:52;30.48;;;28.65;;
53267;SDS011;39156;51.176;6.738;2022-09-01T04:08:19;29.23;;;27.52;;
53267;SDS011;39156;51.176;6.738;2022-09-01T04:10:56;28.42;;;26.90;;
53267;SDS011;39156;51.176;6.738;2022-09-01T04:13:28;28.35;;;26.73;;
53267;SDS011;39156;51.176;6.738;2022-09-01T04:16:05;30.25;;;28.55;;
53267;SDS011;39156;51.176;6.738;2022-09-01T04:19:23;29.85;;;28.15;;
53267;SDS011;39156;51.176;6.738;2022-09-01T04:21:57;28.40;;;26.65;;
53267;SDS011;39156;51.176;6.738;2022-09-01T04:24:25;29.65;;;28.02;;
53267;SDS011;39156;51.176;6.738;2022-09-01T04:26:55;28.80;;;27.20;;
53267;SDS011;39156;51.176;6.738;2022-09-01T04:29:26;27.90;;;26.40;;
53267;SDS011;39156;51.176;6.738;2022-09-01T04:31:54;30.13;;;28.27;;
53267;SDS011;39156;51.176;6.738;2022-09-01T04:34:33;28.77;;;27.27;;
53267;SDS011;39156;51.176;6.738;2022-09-01T04:37:10;28.98;;;27.33;;
53267;SDS011;39156;51.176;6.738;2022-09-01T04:39:47;30.80;;;28.85;;
53267;SDS011;39156;51.176;6.738;2022-09-01T04:42:17;29.52;;;27.92;;
53267;SDS011;39156;51.176;6.738;2022-09-01T04:44:48;28.90;;;27.27;;
53267;SDS011;39156;51.176;6.738;2022-09-01T04:47:15;28.63;;;27.13;;
53267;SDS011;39156;51.176;6.738;2022-09-01T04:49:43;29.38;;;27.67;;
53267;SDS011;39156;51.176;6.738;2022-09-01T04:52:12;29.33;;;27.73;;
53267;SDS011;39156;51.176;6.738;2022-09-01T04:54:38;28.97;;;27.27;;
53267;SDS011;39156;51.176;6.738;2022-09-01T04:57:04;30.73;;;28.93;;
53267;SDS011;39156;51.176;6.738;2022-09-01T04:59:31;27.38;;;25.58;;
53267;SDS011;39156;51.176;6.738;2022-09-01T05:01:58;30.10;;;28.15;;
53267;SDS011;39156;51.176;6.738;2022-09-01T05:04:26;29.88;;;27.92;;
53267;SDS011;39156;51.176;6.738;2022-09-01T05:06:57;28.00;;;26.40;;
53267;SDS011;39156;51.176;6.738;2022-09-01T05:09:25;29.75;;;27.85;;
53267;SDS011;39156;51.176;6.738;2022-09-01T05:12:00;29.80;;;27.90;;
53267;SDS011;39156;51.176;6.738;2022-09-01T05:14:39;29.23;;;27.33;;
53267;SDS011;39156;51.176;6.738;2022-09-01T05:17:08;28.27;;;26.60;;
53267;SDS011;39156;51.176;6.738;2022-09-01T05:19:37;28.20;;;26.70;;
53267;SDS011;39156;51.176;6.738;2022-09-01T05:22:08;29.48;;;27.70;;
53267;SDS011;39156;51.176;6.738;2022-09-01T05:24:34;29.25;;;27.55;;
53267;SDS011;39156;51.176;6.738;2022-09-01T05:27:03;29.60;;;27.73;;
53267;SDS011;39156;51.176;6.738;2022-09-01T05:29:29;29.08;;;27.27;;
53267;SDS011;39156;51.176;6.738;2022-09-01T05:31:55;29.73;;;27.53;;
53267;SDS011;39156;51.176;6.738;2022-09-01T05:34:22;29.67;;;27.85;;
53267;SDS011;39156;51.176;6.738;2022-09-01T05:36:54;27.70;;;26.20;;
53267;SDS011;39156;51.176;6.738;2022-09-01T05:39:22;29.20;;;27.58;;
53267;SDS011;39156;51.176;6.738;2022-09-01T05:44:14;30.15;;;28.33;;
53267;SDS011;39156;51.176;6.738;2022-09-01T05:46:42;28.70;;;27.10;;
53267;SDS011;39156;51.176;6.738;2022-09-01T05:49:08;31.07;;;29.40;;
53267;SDS011;39156;51.176;6.738;2022-09-01T05:51:41;28.27;;;26.70;;
53267;SDS011;39156;51.176;6.738;2022-09-01T05:54:17;29.00;;;27.30;;
53267;SDS011;39156;51.176;6.738;2022-09-01T05:56:47;29.52;;;27.63;;
53267;SDS011;39156;51.176;6.738;2022-09-01T05:59:13;28.38;;;26.85;;
53267;SDS011;39156;51.176;6.738;2022-09-01T06:01:39;28.23;;;26.63;;
53267;SDS011;39156;51.176;6.738;2022-09-01T06:04:06;29.17;;;27.47;;
53267;SDS011;39156;51.176;6.738;2022-09-01T06:06:36;30.85;;;28.52;;
53267;SDS011;39156;51.176;6.738;2022-09-01T06:09:11;28.15;;;26.48;;
53267;SDS011;39156;51.176;6.738;2022-09-01T06:11:42;29.25;;;27.10;;
53267;SDS011;39156;51.176;6.738;2022-09-01T06:14:11;30.25;;;28.55;;
53267;SDS011;39156;51.176;6.738;2022-09-01T06:16:40;28.45;;;26.85;;
53267;SDS011;39156;51.176;6.738;2022-09-01T06:21:34;29.33;;;27.70;;
53267;SDS011;39156;51.176;6.738;2022-09-01T06:24:00;25.77;;;24.38;;
53267;SDS011;39156;51.176;6.738;2022-09-01T06:26:29;27.75;;;26.23;;
53267;SDS011;39156;51.176;6.738;2022-09-01T06:28:59;28.02;;;26.50;;
53267;SDS011;39156;51.176;6.738;2022-09-01T06:31:31;28.15;;;26.35;;
53267;SDS011;39156;51.176;6.738;2022-09-01T06:34:02;30.23;;;28.20;;
53267;SDS011;39156;51.176;6.738;2022-09-01T06:36:29;28.50;;;26.35;;
53267;SDS011;39156;51.176;6.738;2022-09-01T06:38:58;28.45;;;26.75;;
53267;SDS011;39156;51.176;6.738;2022-09-01T06:41:27;26.35;;;24.85;;
53267;SDS011;39156;51.176;6.738;2022-09-01T06:43:54;25.85;;;24.25;;
53267;SDS011;39156;51.176;6.738;2022-09-01T06:46:21;26.55;;;25.02;;
53267;SDS011;39156;51.176;6.738;2022-09-01T06:48:47;25.20;;;23.65;;
53267;SDS011;39156;51.176;6.738;2022-09-01T06:51:14;25.45;;;23.63;;
53267;SDS011;39156;51.176;6.738;2022-09-01T06:53:44;23.33;;;22.13;;
53267;SDS011;39156;51.176;6.738;2022-09-01T06:56:15;24.15;;;22.65;;
53267;SDS011;39156;51.176;6.738;2022-09-01T06:58:43;23.23;;;21.92;;
53267;SDS011;39156;51.176;6.738;2022-09-01T07:01:15;23.13;;;21.58;;
53267;SDS011;39156;51.176;6.738;2022-09-01T07:03:44;23.73;;;22.33;;
53267;SDS011;39156;51.176;6.738;2022-09-01T07:06:15;22.35;;;21.15;;
53267;SDS011;39156;51.176;6.738;2022-09-01T07:08:42;21.58;;;20.20;;
53267;SDS011;39156;51.176;6.738;2022-09-01T07:11:17;22.00;;;20.52;;
53267;SDS011;39156;51.176;6.738;2022-09-01T07:13:49;21.20;;;19.75;;
53267;SDS011;39156;51.176;6.738;2022-09-01T07:16:23;20.92;;;19.60;;
53267;SDS011;39156;51.176;6.738;2022-09-01T07:18:51;21.23;;;19.77;;
53267;SDS011;39156;51.176;6.738;2022-09-01T07:21:22;20.65;;;19.27;;
53267;SDS011;39156;51.176;6.738;2022-09-01T07:23:49;20.67;;;19.48;;
53267;SDS011;39156;51.176;6.738;2022-09-01T07:26:15;20.70;;;19.23;;
53267;SDS011;39156;51.176;6.738;2022-09-01T07:28:46;19.45;;;18.45;;
53267;SDS011;39156;51.176;6.738;2022-09-01T07:31:18;19.73;;;18.63;;
53267;SDS011;39156;51.176;6.738;2022-09-01T07:33:50;19.40;;;18.30;;
53267;SDS011;39156;51.176;6.738;2022-09-01T07:36:19;19.50;;;18.38;;
53267;SDS011;39156;51.176;6.738;2022-09-01T07:38:45;18.95;;;17.85;;
53267;SDS011;39156;51.176;6.738;2022-09-01T07:41:17;18.63;;;17.42;;
53267;SDS011;39156;51.176;6.738;2022-09-01T07:43:48;18.48;;;17.27;;
53267;SDS011;39156;51.176;6.738;2022-09-01T07:46:17;18.40;;;17.40;;
53267;SDS011;39156;51.176;6.738;2022-09-01T07:48:44;18.05;;;16.95;;
53267;SDS011;39156;51.176;6.738;2022-09-01T07:51:12;18.50;;;17.30;;
53267;SDS011;39156;51.176;6.738;2022-09-01T07:53:43;18.67;;;17.67;;
53267;SDS011;39156;51.176;6.738;2022-09-01T07:56:11;17.52;;;16.55;;
53267;SDS011;39156;51.176;6.738;2022-09-01T07:58:38;18.35;;;17.15;;
53267;SDS011;39156;51.176;6.738;2022-09-01T08:01:09;18.30;;;17.10;;
53267;SDS011;39156;51.176;6.738;2022-09-01T08:03:38;17.95;;;16.77;;
53267;SDS011;39156;51.176;6.738;2022-09-01T08:06:06;19.15;;;17.58;;
53267;SDS011;39156;51.176;6.738;2022-09-01T08:08:35;18.35;;;17.35;;
53267;SDS011;39156;51.176;6.738;2022-09-01T08:11:02;17.90;;;16.75;;
53267;SDS011;39156;51.176;6.738;2022-09-01T08:13:28;17.70;;;16.60;;
53267;SDS011;39156;51.176;6.738;2022-09-01T08:15:54;17.90;;;16.73;;
53267;SDS011;39156;51.176;6.738;2022-09-01T08:18:20;18.30;;;16.92;;
53267;SDS011;39156;51.176;6.738;2022-09-01T08:20:46;18.63;;;16.92;;
53267;SDS011;39156;51.176;6.738;2022-09-01T08:23:13;18.27;;;17.33;;
53267;SDS011;39156;51.176;6.738;2022-09-01T08:25:42;17.27;;;16.38;;
53267;SDS011;39156;51.176;6.738;2022-09-01T08:28:10;18.10;;;16.92;;
53267;SDS011;39156;51.176;6.738;2022-09-01T08:30:39;17.75;;;16.65;;
53267;SDS011;39156;51.176;6.738;2022-09-01T08:33:07;18.05;;;17.05;;
53267;SDS011;39156;51.176;6.738;2022-09-01T08:35:38;18.38;;;17.27;;
53267;SDS011;39156;51.176;6.738;2022-09-01T08:38:10;17.65;;;16.60;;
53267;SDS011;39156;51.176;6.738;2022-09-01T08:40:36;18.50;;;17.30;;
53267;SDS011;39156;51.176;6.738;2022-09-01T08:45:53;17.30;;;16.40;;
53267;SDS011;39156;51.176;6.738;2022-09-01T08:48:26;17.23;;;16.33;;
53267;SDS011;39156;51.176;6.738;2022-09-01T08:51:13;18.90;;;16.95;;
53267;SDS011;39156;51.176;6.738;2022-09-01T08:53:48;18.27;;;17.02;;
53267;SDS011;39156;51.176;6.738;2022-09-01T08:56:28;18.10;;;16.80;;
53267;SDS011;39156;51.176;6.738;2022-09-01T08:58:56;18.33;;;17.33;;
53267;SDS011;39156;51.176;6.738;2022-09-01T09:01:45;18.27;;;17.33;;
53267;SDS011;39156;51.176;6.738;2022-09-01T09:04:58;18.80;;;17.70;;
53267;SDS011;39156;51.176;6.738;2022-09-01T09:10:45;19.77;;;18.67;;
53267;SDS011;39156;51.176;6.738;2022-09-01T09:19:01;18.48;;;17.38;;
53267;SDS011;39156;51.176;6.738;2022-09-01T09:21:46;18.63;;;17.52;;
53267;SDS011;39156;51.176;6.738;2022-09-01T09:24:18;18.50;;;17.50;;
53267;SDS011;39156;51.176;6.738;2022-09-01T09:29:51;17.77;;;16.77;;
53267;SDS011;39156;51.176;6.738;2022-09-01T09:32:21;17.58;;;16.58;;
53267;SDS011;39156;51.176;6.738;2022-09-01T09:34:50;19.02;;;18.02;;
53267;SDS011;39156;51.176;6.738;2022-09-01T09:40:00;18.70;;;17.65;;
53267;SDS011;39156;51.176;6.738;2022-09-01T09:42:57;18.05;;;17.05;;
53267;SDS011;39156;51.176;6.738;2022-09-01T09:45:29;18.55;;;17.45;;
53267;SDS011;39156;51.176;6.738;2022-09-01T09:48:06;18.60;;;17.60;;
53267;SDS011;39156;51.176;6.738;2022-09-01T09:50:36;18.63;;;17.40;;
53267;SDS011;39156;51.176;6.738;2022-09-01T09:56:01;18.17;;;17.27;;
53267;SDS011;39156;51.176;6.738;2022-09-01T09:58:41;18.55;;;17.55;;
53267;SDS011;39156;51.176;6.738;2022-09-01T10:03:54;18.23;;;17.23;;
53267;SDS011;39156;51.176;6.738;2022-09-01T10:06:36;18.50;;;17.50;;
53267;SDS011;39156;51.176;6.738;2022-09-01T10:09:06;19.13;;;18.02;;
53267;SDS011;39156;51.176;6.738;2022-09-01T10:11:39;19.02;;;17.83;;
53267;SDS011;39156;51.176;6.738;2022-09-01T10:14:20;18.95;;;17.90;;
53267;SDS011;39156;51.176;6.738;2022-09-01T10:16:52;19.70;;;18.50;;
53267;SDS011;39156;51.176;6.738;2022-09-01T10:19:26;19.40;;;18.40;;
53267;SDS011;39156;51.176;6.738;2022-09-01T10:21:54;19.25;;;18.25;;
53267;SDS011;39156;51.176;6.738;2022-09-01T10:27:00;20.63;;;19.42;;
53267;SDS011;39156;51.176;6.738;2022-09-01T10:29:35;20.27;;;19.17;;
53267;SDS011;39156;51.176;6.738;2022-09-01T10:32:10;21.55;;;20.40;;
53267;SDS011;39156;51.176;6.738;2022-09-01T10:34:42;21.05;;;19.95;;
53267;SDS011;39156;51.176;6.738;2022-09-01T10:37:09;22.27;;;20.80;;
53267;SDS011;39156;51.176;6.738;2022-09-01T10:42:34;22.30;;;21.00;;
53267;SDS011;39156;51.176;6.738;2022-09-01T10:45:00;23.42;;;22.23;;
53267;SDS011;39156;51.176;6.738;2022-09-01T10:47:27;23.52;;;22.13;;
53267;SDS011;39156;51.176;6.738;2022-09-01T10:50:05;23.27;;;22.08;;
53267;SDS011;39156;51.176;6.738;2022-09-01T10:55:24;24.02;;;22.73;;
53267;SDS011;39156;51.176;6.738;2022-09-01T11:01:00;23.30;;;22.00;;
53267;SDS011;39156;51.176;6.738;2022-09-01T11:12:42;23.65;;;22.45;;
53267;SDS011;39156;51.176;6.738;2022-09-01T11:15:33;24.00;;;22.70;;
53267;SDS011;39156;51.176;6.738;2022-09-01T11:18:01;24.98;;;23.48;;
53267;SDS011;39156;51.176;6.738;2022-09-01T11:20:35;24.17;;;22.88;;
53267;SDS011;39156;51.176;6.738;2022-09-01T11:25:52;24.70;;;23.20;;
53267;SDS011;39156;51.176;6.738;2022-09-01T11:36:26;23.25;;;22.00;;
53267;SDS011;39156;51.176;6.738;2022-09-01T11:41:47;22.83;;;21.63;;
53267;SDS011;39156;51.176;6.738;2022-09-01T11:44:22;23.83;;;22.63;;
53267;SDS011;39156;51.176;6.738;2022-09-01T11:46:53;22.42;;;21.27;;
53267;SDS011;39156;51.176;6.738;2022-09-01T11:49:34;24.92;;;23.52;;
53267;SDS011;39156;51.176;6.738;2022-09-01T11:52:04;24.52;;;23.23;;
53267;SDS011;39156;51.176;6.738;2022-09-01T11:54:38;22.98;;;21.77;;
53267;SDS011;39156;51.176;6.738;2022-09-01T11:57:21;24.58;;;23.35;;
53267;SDS011;39156;51.176;6.738;2022-09-01T11:59:54;23.98;;;22.67;;
53267;SDS011;39156;51.176;6.738;2022-09-01T12:02:31;24.15;;;22.92;;
53267;SDS011;39156;51.176;6.738;2022-09-01T12:05:00;24.10;;;22.90;;
53267;SDS011;39156;51.176;6.738;2022-09-01T12:07:41;23.88;;;22.67;;
53267;SDS011;39156;51.176;6.738;2022-09-01T12:10:19;24.23;;;22.92;;
53267;SDS011;39156;51.176;6.738;2022-09-01T12:13:02;24.35;;;23.15;;
53267;SDS011;39156;51.176;6.738;2022-09-01T12:15:28;24.00;;;22.70;;
53267;SDS011;39156;51.176;6.738;2022-09-01T12:18:07;24.05;;;22.83;;
53267;SDS011;39156;51.176;6.738;2022-09-01T12:20:43;23.85;;;22.65;;
53267;SDS011;39156;51.176;6.738;2022-09-01T12:23:18;24.17;;;22.88;;
53267;SDS011;39156;51.176;6.738;2022-09-01T12:25:55;24.77;;;23.05;;
53267;SDS011;39156;51.176;6.738;2022-09-01T12:28:25;24.50;;;23.20;;
53267;SDS011;39156;51.176;6.738;2022-09-01T12:30:55;25.00;;;23.52;;
53267;SDS011;39156;51.176;6.738;2022-09-01T12:33:24;26.55;;;25.10;;
53267;SDS011;39156;51.176;6.738;2022-09-01T12:35:51;23.50;;;22.30;;
53267;SDS011;39156;51.176;6.738;2022-09-01T12:38:24;24.48;;;23.17;;
53267;SDS011;39156;51.176;6.738;2022-09-01T12:40:54;24.02;;;22.80;;
53267;SDS011;39156;51.176;6.738;2022-09-01T12:43:38;24.15;;;22.95;;
53267;SDS011;39156;51.176;6.738;2022-09-01T12:46:05;25.52;;;24.15;;
53267;SDS011;39156;51.176;6.738;2022-09-01T12:48:34;24.27;;;22.73;;
53267;SDS011;39156;51.176;6.738;2022-09-01T12:51:04;24.05;;;22.80;;
53267;SDS011;39156;51.176;6.738;2022-09-01T12:53:49;25.30;;;23.90;;
53267;SDS011;39156;51.176;6.738;2022-09-01T12:56:29;24.60;;;23.38;;
53267;SDS011;39156;51.176;6.738;2022-09-01T12:59:21;24.55;;;23.25;;
53267;SDS011;39156;51.176;6.738;2022-09-01T13:01:50;23.98;;;22.77;;
53267;SDS011;39156;51.176;6.738;2022-09-01T13:04:23;25.10;;;23.80;;
53267;SDS011;39156;51.176;6.738;2022-09-01T13:06:56;24.70;;;23.48;;
53267;SDS011;39156;51.176;6.738;2022-09-01T13:09:31;25.00;;;23.60;;
53267;SDS011;39156;51.176;6.738;2022-09-01T13:12:10;25.40;;;23.80;;
53267;SDS011;39156;51.176;6.738;2022-09-01T13:14:42;24.63;;;23.33;;
53267;SDS011;39156;51.176;6.738;2022-09-01T13:17:08;23.77;;;22.55;;
53267;SDS011;39156;51.176;6.738;2022-09-01T13:19:33;24.50;;;23.20;;
53267;SDS011;39156;51.176;6.738;2022-09-01T13:21:59;24.48;;;22.98;;
53267;SDS011;39156;51.176;6.738;2022-09-01T13:24:25;23.85;;;22.65;;
53267;SDS011;39156;51.176;6.738;2022-09-01T13:26:50;23.20;;;21.80;;
53267;SDS011;39156;51.176;6.738;2022-09-01T13:29:19;23.42;;;21.75;;
53267;SDS011;39156;51.176;6.738;2022-09-01T13:31:45;23.30;;;22.10;;
53267;SDS011;39156;51.176;6.738;2022-09-01T13:34:11;24.45;;;23.05;;
53267;SDS011;39156;51.176;6.738;2022-09-01T13:36:36;23.85;;;22.65;;
53267;SDS011;39156;51.176;6.738;2022-09-01T13:39:02;24.40;;;23.00;;
53267;SDS011;39156;51.176;6.738;2022-09-01T13:43:55;23.77;;;22.35;;
53267;SDS011;39156;51.176;6.738;2022-09-01T13:46:21;23.40;;;22.20;;
53267;SDS011;39156;51.176;6.738;2022-09-01T13:51:22;24.15;;;22.85;;
53267;SDS011;39156;51.176;6.738;2022-09-01T13:53:51;24.98;;;23.58;;
53267;SDS011;39156;51.176;6.738;2022-09-01T13:56:17;23.92;;;22.45;;
53267;SDS011;39156;51.176;6.738;2022-09-01T13:58:43;23.60;;;22.40;;
53267;SDS011;39156;51.176;6.738;2022-09-01T14:01:08;24.52;;;23.23;;
53267;SDS011;39156;51.176;6.738;2022-09-01T14:03:37;24.75;;;23.25;;
53267;SDS011;39156;51.176;6.738;2022-09-01T14:06:03;23.85;;;22.58;;
53267;SDS011;39156;51.176;6.738;2022-09-01T14:08:30;24.15;;;22.85;;
53267;SDS011;39156;51.176;6.738;2022-09-01T14:10:57;24.08;;;22.88;;
53267;SDS011;39156;51.176;6.738;2022-09-01T14:15:51;23.73;;;22.45;;
53267;SDS011;39156;51.176;6.738;2022-09-01T14:18:18;25.17;;;23.75;;
53267;SDS011;39156;51.176;6.738;2022-09-01T14:20:46;24.58;;;23.33;;
53267;SDS011;39156;51.176;6.738;2022-09-01T14:23:15;25.05;;;23.63;;
53267;SDS011;39156;51.176;6.738;2022-09-01T14:25:44;25.73;;;24.42;;
53267;SDS011;39156;51.176;6.738;2022-09-01T14:28:15;25.40;;;24.00;;
53267;SDS011;39156;51.176;6.738;2022-09-01T14:30:42;24.42;;;23.13;;
53267;SDS011;39156;51.176;6.738;2022-09-01T14:35:36;24.63;;;23.33;;
53267;SDS011;39156;51.176;6.738;2022-09-01T14:38:05;25.98;;;24.48;;
53267;SDS011;39156;51.176;6.738;2022-09-01T14:40:32;26.08;;;24.77;;
53267;SDS011;39156;51.176;6.738;2022-09-01T14:43:01;24.63;;;23.33;;
53267;SDS011;39156;51.176;6.738;2022-09-01T14:45:31;25.50;;;24.00;;
53267;SDS011;39156;51.176;6.738;2022-09-01T14:47:58;24.45;;;23.05;;
53267;SDS011;39156;51.176;6.738;2022-09-01T14:50:25;25.52;;;24.13;;
53267;SDS011;39156;51.176;6.738;2022-09-01T14:52:54;25.30;;;24.00;;
53267;SDS011;39156;51.176;6.738;2022-09-01T14:55:21;26.60;;;25.20;;
53267;SDS011;39156;51.176;6.738;2022-09-01T14:57:49;25.45;;;24.05;;
53267;SDS011;39156;51.176;6.738;2022-09-01T15:00:16;24.88;;;23.58;;
53267;SDS011;39156;51.176;6.738;2022-09-01T15:02:43;25.10;;;23.25;;
53267;SDS011;39156;51.176;6.738;2022-09-01T15:05:10;24.02;;;22.80;;
53267;SDS011;39156;51.176;6.738;2022-09-01T15:07:37;24.27;;;23.08;;
53267;SDS011;39156;51.176;6.738;2022-09-01T15:10:04;23.85;;;22.55;;
53267;SDS011;39156;51.176;6.738;2022-09-01T15:12:33;23.80;;;22.50;;
53267;SDS011;39156;51.176;6.738;2022-09-01T15:14:59;23.55;;;22.35;;
53267;SDS011;39156;51.176;6.738;2022-09-01T15:19:52;24.02;;;22.73;;
53267;SDS011;39156;51.176;6.738;2022-09-01T15:22:18;22.73;;;21.52;;
53267;SDS011;39156;51.176;6.738;2022-09-01T15:24:44;23.92;;;22.70;;
53267;SDS011;39156;51.176;6.738;2022-09-01T15:27:11;23.35;;;22.15;;
53267;SDS011;39156;51.176;6.738;2022-09-01T15:29:37;25.70;;;24.30;;
53267;SDS011;39156;51.176;6.738;2022-09-01T15:32:10;25.48;;;24.05;;
53267;SDS011;39156;51.176;6.738;2022-09-01T15:34:36;24.50;;;23.08;;
53267;SDS011;39156;51.176;6.738;2022-09-01T15:37:03;24.35;;;23.10;;
53267;SDS011;39156;51.176;6.738;2022-09-01T15:39:29;25.27;;;23.85;;
53267;SDS011;39156;51.176;6.738;2022-09-01T15:41:55;25.25;;;23.95;;
53267;SDS011;39156;51.176;6.738;2022-09-01T15:44:21;25.02;;;23.58;;
53267;SDS011;39156;51.176;6.738;2022-09-01T15:46:47;25.73;;;24.33;;
53267;SDS011;39156;51.176;6.738;2022-09-01T15:49:13;24.05;;;22.75;;
53267;SDS011;39156;51.176;6.738;2022-09-01T15:51:40;24.73;;;23.42;;
53267;SDS011;39156;51.176;6.738;2022-09-01T15:54:09;25.65;;;24.15;;
53267;SDS011;39156;51.176;6.738;2022-09-01T15:56:38;24.38;;;23.08;;
53267;SDS011;39156;51.176;6.738;2022-09-01T15:59:04;26.08;;;24.50;;
53267;SDS011;39156;51.176;6.738;2022-09-01T16:01:33;26.52;;;24.92;;
53267;SDS011;39156;51.176;6.738;2022-09-01T16:04:06;25.48;;;24.00;;